createdAt,value
2019-03-11T00:02:26.889Z,99615.84
2019-03-11T00:04:54.544Z,99613.64
2019-03-11T00:07:22.180Z,99628.63
2019-03-11T00:09:49.825Z,99630.92
2019-03-11T00:12:17.483Z,99636.69
2019-03-11T00:14:45.103Z,99632.51
2019-03-11T00:17:12.742Z,99637.09
2019-03-11T00:19:40.399Z,99636.83
2019-03-11T00:22:08.042Z,99646.56
2019-03-11T00:24:35.691Z,99657.67
2019-03-11T00:27:03.346Z,99658.64
2019-03-11T00:29:30.992Z,99653.61
2019-03-11T00:31:58.634Z,99665.13
2019-03-11T00:34:26.286Z,99662.30
2019-03-11T00:36:53.939Z,99661.55
2019-03-11T00:39:21.585Z,99667.22
2019-03-11T00:41:49.223Z,99673.35
2019-03-11T00:44:16.866Z,99671.67
2019-03-11T00:46:44.515Z,99676.70
2019-03-11T00:49:12.167Z,99685.35
2019-03-11T00:51:39.799Z,99680.14
2019-03-11T00:54:07.461Z,99686.19
2019-03-11T00:56:35.095Z,99690.41
2019-03-11T00:59:02.736Z,99685.39
2019-03-11T01:01:30.374Z,99690.76
2019-03-11T01:03:58.016Z,99689.05
2019-03-11T01:06:25.675Z,99705.72
2019-03-11T01:08:53.318Z,99699.19
2019-03-11T01:11:20.960Z,99702.27
2019-03-11T01:13:48.604Z,99701.52
2019-03-11T01:16:16.250Z,99706.16
2019-03-11T01:18:43.905Z,99708.82
2019-03-11T01:21:11.534Z,99699.88
2019-03-11T01:23:39.259Z,99701.48
2019-03-11T01:26:06.907Z,99709.56
2019-03-11T01:28:34.554Z,99706.70
2019-03-11T01:31:02.211Z,99703.83
2019-03-11T01:33:29.835Z,99699.58
2019-03-11T01:35:57.475Z,99699.27
2019-03-11T01:38:25.123Z,99700.39
2019-03-11T01:40:52.762Z,99694.24
2019-03-11T01:43:20.406Z,99689.45
2019-03-11T01:45:48.042Z,99696.40
2019-03-11T01:48:15.670Z,99684.25
2019-03-11T01:50:43.401Z,99690.05
2019-03-11T01:53:11.048Z,99696.55
2019-03-11T01:55:38.693Z,99680.70
2019-03-11T01:58:06.329Z,99682.33
2019-03-11T02:00:33.980Z,99681.30
2019-03-11T02:03:01.618Z,99687.69
2019-03-11T02:05:29.270Z,99675.78
2019-03-11T02:07:56.897Z,99673.85
2019-03-11T02:10:24.543Z,99674.51
2019-03-11T02:12:52.191Z,99680.64
2019-03-11T02:15:19.836Z,99688.48
2019-03-11T02:17:47.478Z,99680.90
2019-03-11T02:20:15.117Z,99681.22
2019-03-11T02:22:42.771Z,99674.73
2019-03-11T02:25:10.419Z,99678.74
2019-03-11T02:27:38.139Z,99684.99
2019-03-11T02:30:05.783Z,99678.69
2019-03-11T02:32:33.424Z,99688.69
2019-03-11T02:35:01.074Z,99691.90
2019-03-11T02:37:28.698Z,99690.53
2019-03-11T02:39:56.348Z,99688.55
2019-03-11T02:42:23.995Z,99688.63
2019-03-11T02:44:51.646Z,99690.83
2019-03-11T02:47:19.371Z,99688.34
2019-03-11T02:49:47.148Z,99681.02
2019-03-11T02:52:14.830Z,99675.91
2019-03-11T02:54:42.489Z,99668.77
2019-03-11T02:57:10.148Z,99686.13
2019-03-11T02:59:37.804Z,99688.31
2019-03-11T03:02:10.779Z,99696.13
2019-03-11T03:04:42.835Z,99693.91
2019-03-11T03:07:10.485Z,99700.43
2019-03-11T03:09:38.152Z,99703.92
2019-03-11T03:12:05.920Z,99698.80
2019-03-11T03:14:33.564Z,99706.29
2019-03-11T03:17:01.202Z,99710.09
2019-03-11T03:19:28.848Z,99710.00
2019-03-11T03:21:56.495Z,99718.39
2019-03-11T03:24:24.140Z,99702.12
2019-03-11T03:26:51.775Z,99711.82
2019-03-11T03:29:19.431Z,99702.98
2019-03-11T03:31:47.080Z,99710.36
2019-03-11T03:34:14.804Z,99707.75
2019-03-11T03:36:42.442Z,99710.84
2019-03-11T03:39:10.083Z,99709.07
2019-03-11T03:41:37.721Z,99705.20
2019-03-11T03:44:05.394Z,99709.48
2019-03-11T03:46:33.107Z,99713.35
2019-03-11T03:49:00.755Z,99708.45
2019-03-11T03:51:28.402Z,99711.14
2019-03-11T03:53:56.035Z,99708.22
2019-03-11T03:56:23.706Z,99713.25
2019-03-11T03:58:51.347Z,99703.30
2019-03-11T04:01:18.997Z,99721.85
2019-03-11T04:03:46.638Z,99722.61
2019-03-11T04:06:14.283Z,99723.30
2019-03-11T04:08:41.922Z,99725.72
2019-03-11T04:11:09.584Z,99720.86
2019-03-11T04:13:37.212Z,99723.98
2019-03-11T04:16:04.852Z,99726.71
2019-03-11T04:18:32.559Z,99738.13
2019-03-11T04:21:00.222Z,99727.70
2019-03-11T04:23:27.867Z,99723.84
2019-03-11T04:25:55.534Z,99735.56
2019-03-11T04:28:23.243Z,99732.19
2019-03-11T04:30:50.888Z,99730.17
2019-03-11T04:33:18.515Z,99732.59
2019-03-11T04:35:46.171Z,99733.22
2019-03-11T04:38:13.882Z,99735.38
2019-03-11T04:40:41.514Z,99728.47
2019-03-11T04:43:09.150Z,99732.48
2019-03-11T04:45:36.798Z,99735.94
2019-03-11T04:48:04.477Z,99732.96
2019-03-11T04:50:32.131Z,99734.47
2019-03-11T04:52:59.761Z,99726.91
2019-03-11T04:55:27.406Z,99722.39
2019-03-11T04:57:55.048Z,99716.73
2019-03-11T05:00:22.717Z,99710.03
2019-03-11T05:02:50.354Z,99714.05
2019-03-11T05:05:18.019Z,99710.49
2019-03-11T05:07:45.670Z,99718.97
2019-03-11T05:10:15.948Z,99710.32
2019-03-11T05:12:42.656Z,99709.81
2019-03-11T05:15:10.316Z,99702.12
2019-03-11T05:17:37.961Z,99703.77
2019-03-11T05:20:05.602Z,99718.78
2019-03-11T05:22:33.247Z,99709.17
2019-03-11T05:25:00.911Z,99713.42
2019-03-11T05:27:28.546Z,99718.99
2019-03-11T05:29:56.182Z,99713.70
2019-03-11T05:32:23.838Z,99713.45
2019-03-11T05:34:51.576Z,99714.45
2019-03-11T05:37:19.219Z,99711.69
2019-03-11T05:39:46.858Z,99710.02
2019-03-11T05:42:14.516Z,99708.17
2019-03-11T05:44:42.209Z,99707.11
2019-03-11T05:47:09.852Z,99703.28
2019-03-11T05:49:37.502Z,99690.55
2019-03-11T05:52:05.147Z,99681.60
2019-03-11T05:54:32.792Z,99682.83
2019-03-11T05:57:00.445Z,99676.53
2019-03-11T05:59:28.075Z,99674.11
2019-03-11T06:01:55.712Z,99671.73
2019-03-11T06:04:23.359Z,99662.26
2019-03-11T06:06:51.008Z,99661.11
2019-03-11T06:09:18.636Z,99655.02
2019-03-11T06:11:46.288Z,99660.05
2019-03-11T06:14:13.929Z,99662.12
2019-03-11T06:16:41.584Z,99658.24
2019-03-11T06:19:09.223Z,99657.87
2019-03-11T06:21:46.295Z,99649.00
2019-03-11T06:24:13.947Z,99647.27
2019-03-11T06:26:41.674Z,99649.55
2019-03-11T06:29:09.408Z,99649.95
2019-03-11T06:31:37.149Z,99644.88
2019-03-11T06:34:04.783Z,99648.32
2019-03-11T06:36:32.443Z,99642.88
2019-03-11T06:39:05.795Z,99647.08
2019-03-11T06:41:29.443Z,99642.56
2019-03-11T06:43:57.090Z,99639.17
2019-03-11T06:46:24.756Z,99646.41
2019-03-11T06:48:52.406Z,99640.84
2019-03-11T06:51:20.056Z,99645.98
2019-03-11T06:53:47.737Z,99647.14
2019-03-11T06:56:15.375Z,99649.63
2019-03-11T06:58:43.020Z,99641.59
2019-03-11T07:01:10.672Z,99643.75
2019-03-11T07:03:38.307Z,99641.78
2019-03-11T07:06:05.971Z,99648.59
2019-03-11T07:08:33.620Z,99647.11
2019-03-11T07:11:01.297Z,99648.11
2019-03-11T07:13:28.927Z,99646.91
2019-03-11T07:15:56.586Z,99647.51
2019-03-11T07:18:24.231Z,99636.91
2019-03-11T07:20:51.879Z,99648.52
2019-03-11T07:23:19.551Z,99647.71
2019-03-11T07:25:47.566Z,99650.83
2019-03-11T07:28:15.208Z,99658.44
2019-03-11T07:30:42.857Z,99661.31
2019-03-11T07:33:10.508Z,99666.88
2019-03-11T07:35:38.158Z,99661.95
2019-03-11T07:38:05.799Z,99659.94
2019-03-11T07:40:33.451Z,99658.97
2019-03-11T07:43:01.098Z,99663.22
2019-03-11T07:45:28.756Z,99660.25
2019-03-11T07:47:56.408Z,99667.34
2019-03-11T07:50:24.122Z,99672.47
2019-03-11T07:52:51.782Z,99667.86
2019-03-11T07:55:19.440Z,99665.06
2019-03-11T07:57:47.117Z,99668.28
2019-03-11T08:00:14.763Z,99675.14
2019-03-11T08:02:42.405Z,99673.09
2019-03-11T08:05:10.051Z,99671.52
2019-03-11T08:07:37.697Z,99674.28
2019-03-11T08:10:05.351Z,99680.15
2019-03-11T08:12:33.381Z,99684.03
2019-03-11T08:15:01.141Z,99673.01
2019-03-11T08:17:28.808Z,99687.87
2019-03-11T08:19:56.444Z,99688.88
2019-03-11T08:22:24.100Z,99686.06
2019-03-11T08:24:51.750Z,99688.62
2019-03-11T08:27:19.436Z,99689.80
2019-03-11T08:29:47.087Z,99687.59
2019-03-11T08:32:14.731Z,99689.00
2019-03-11T08:34:42.371Z,99695.53
2019-03-11T08:37:10.039Z,99687.02
2019-03-11T08:39:37.683Z,99690.33
2019-03-11T08:42:05.330Z,99693.16
2019-03-11T08:44:32.989Z,99691.02
2019-03-11T08:47:00.622Z,99703.89
2019-03-11T08:49:28.259Z,99699.92
2019-03-11T08:51:55.916Z,99706.81
2019-03-11T08:54:23.559Z,99712.85
2019-03-11T08:59:30.040Z,99715.29
2019-03-11T09:01:57.709Z,99720.88
2019-03-11T09:04:25.347Z,99726.44
2019-03-11T09:06:53.002Z,99719.20
2019-03-11T09:09:20.636Z,99708.64
2019-03-11T09:11:48.312Z,99714.42
2019-03-11T09:14:15.956Z,99716.53
2019-03-11T09:16:43.598Z,99711.00
2019-03-11T09:19:11.240Z,99702.52
2019-03-11T09:21:38.879Z,99718.16
2019-03-11T09:24:06.523Z,99713.43
2019-03-11T09:26:34.195Z,99707.52
2019-03-11T09:29:01.870Z,99709.45
2019-03-11T09:31:29.507Z,99705.95
2019-03-11T09:33:57.152Z,99706.78
2019-03-11T09:36:24.791Z,99705.76
2019-03-11T09:38:52.438Z,99699.86
2019-03-11T09:41:20.140Z,99695.52
2019-03-11T09:43:47.786Z,99696.80
2019-03-11T09:46:15.432Z,99693.75
2019-03-11T09:48:44.925Z,99690.53
2019-03-11T09:51:12.432Z,99693.48
2019-03-11T09:53:40.095Z,99681.19
2019-03-11T09:56:09.618Z,99690.16
2019-03-11T09:58:37.104Z,99677.64
2019-03-11T10:01:04.755Z,99680.05
2019-03-11T10:03:32.400Z,99680.53
2019-03-11T10:06:00.044Z,99682.80
2019-03-11T10:08:27.707Z,99677.72
2019-03-11T10:10:55.361Z,99681.98
2019-03-11T10:13:23.017Z,99689.48
2019-03-11T10:15:50.660Z,99674.92
2019-03-11T10:18:18.384Z,99676.09
2019-03-11T10:20:46.034Z,99680.64
2019-03-11T10:23:13.677Z,99673.58
2019-03-11T10:25:41.320Z,99686.56
2019-03-11T10:28:08.972Z,99684.62
2019-03-11T10:30:36.607Z,99691.66
2019-03-11T10:33:04.255Z,99678.64
2019-03-11T10:35:32.911Z,99687.89
2019-03-11T10:38:00.999Z,99684.78
2019-03-11T10:40:28.706Z,99679.73
2019-03-11T10:42:56.365Z,99698.14
2019-03-11T10:45:31.372Z,99708.56
2019-03-11T10:47:53.393Z,99698.02
2019-03-11T10:50:21.041Z,99701.41
2019-03-11T10:52:48.744Z,99712.86
2019-03-11T10:55:16.391Z,99711.58
2019-03-11T10:57:44.031Z,99712.96
2019-03-11T11:00:11.688Z,99709.44
2019-03-11T11:02:39.452Z,99716.39
2019-03-11T11:05:07.172Z,99712.41
2019-03-11T11:07:34.873Z,99722.05
2019-03-11T11:10:02.523Z,99722.09
2019-03-11T11:12:30.163Z,99714.34
2019-03-11T11:14:57.803Z,99706.53
2019-03-11T11:17:25.459Z,99711.51
2019-03-11T11:20:02.962Z,99703.50
2019-03-11T11:22:22.489Z,99695.11
2019-03-11T11:24:50.135Z,99692.72
2019-03-11T11:27:17.786Z,99684.61
2019-03-11T11:29:45.432Z,99705.48
2019-03-11T11:32:13.092Z,99719.58
2019-03-11T11:34:40.882Z,99749.85
2019-03-11T11:37:08.583Z,99740.38
2019-03-11T11:39:36.227Z,99729.97
2019-03-11T11:42:03.875Z,99724.84
2019-03-11T11:49:48.476Z,99711.13
2019-03-11T11:52:16.133Z,99702.97
2019-03-11T11:54:43.854Z,99692.30
2019-03-11T11:57:11.515Z,99693.14
2019-03-11T11:59:39.176Z,99690.22
2019-03-11T12:02:06.811Z,99676.27
2019-03-11T12:04:34.479Z,99679.16
2019-03-11T12:07:02.129Z,99676.58
2019-03-11T12:09:29.803Z,99670.81
2019-03-11T12:11:57.456Z,99669.89
2019-03-11T12:14:25.100Z,99683.66
2019-03-11T12:16:53.081Z,99672.74
2019-03-11T12:19:20.746Z,99670.16
2019-03-11T12:21:48.432Z,99677.01
2019-03-11T12:24:16.084Z,99681.21
2019-03-11T12:26:43.742Z,99706.62
2019-03-11T12:29:11.523Z,99715.92
2019-03-11T12:31:39.156Z,99721.00
2019-03-11T12:34:06.831Z,99720.95
2019-03-11T12:36:34.583Z,99749.09
2019-03-11T12:39:02.220Z,99757.37
2019-03-11T12:41:29.867Z,99740.69
2019-03-11T12:43:57.507Z,99736.42
2019-03-11T12:46:25.165Z,99730.73
2019-03-11T12:48:52.892Z,99733.45
2019-03-11T12:51:20.617Z,99732.61
2019-03-11T12:53:48.303Z,99714.23
2019-03-11T12:56:15.940Z,99712.11
2019-03-11T12:58:43.577Z,99705.24
2019-03-11T13:01:11.232Z,99730.23
2019-03-11T13:03:38.941Z,99723.33
2019-03-11T13:06:06.596Z,99728.92
2019-03-11T13:08:34.227Z,99725.28
2019-03-11T13:11:01.864Z,99734.59
2019-03-11T13:13:29.673Z,99724.66
2019-03-11T13:15:57.378Z,99744.53
2019-03-11T13:18:25.035Z,99757.25
2019-03-11T13:20:52.681Z,99746.03
2019-03-11T13:23:20.346Z,99738.80
2019-03-11T13:25:48.031Z,99742.16
2019-03-11T13:28:15.717Z,99729.53
2019-03-11T13:30:43.527Z,99721.89
2019-03-11T13:33:11.166Z,99731.15
2019-03-11T13:35:38.856Z,99736.40
2019-03-11T13:38:06.509Z,99748.39
2019-03-11T13:40:34.175Z,99732.98
2019-03-11T13:43:01.819Z,99732.52
2019-03-11T13:45:29.474Z,99752.81
2019-03-11T13:47:57.117Z,99763.90
2019-03-11T13:50:24.796Z,99778.84
2019-03-11T13:52:52.474Z,99755.59
2019-03-11T13:55:20.251Z,99798.19
2019-03-11T13:57:47.955Z,99799.64
2019-03-11T14:00:16.075Z,99790.47
2019-03-11T14:02:43.725Z,99791.17
2019-03-11T14:05:11.367Z,99801.45
2019-03-11T14:07:39.028Z,99793.09
2019-03-11T14:10:06.683Z,99796.64
2019-03-11T14:12:34.396Z,99789.16
2019-03-11T14:15:02.036Z,99801.40
2019-03-11T14:17:29.678Z,99794.03
2019-03-11T14:19:57.327Z,99803.53
2019-03-11T14:22:24.976Z,99800.89
2019-03-11T14:24:52.632Z,99786.27
2019-03-11T14:27:20.318Z,99789.20
2019-03-11T14:29:48.076Z,99789.69
2019-03-11T14:32:16.075Z,99791.78
2019-03-11T14:34:43.771Z,99784.16
2019-03-11T14:37:13.282Z,99784.30
2019-03-11T14:39:40.938Z,99797.66
2019-03-11T14:42:08.601Z,99803.17
2019-03-11T14:44:36.243Z,99815.70
2019-03-11T14:47:03.896Z,99831.67
2019-03-11T14:49:31.540Z,99829.78
2019-03-11T14:51:59.187Z,99848.62
2019-03-11T14:54:26.821Z,99817.65
2019-03-11T14:56:54.476Z,99859.75
2019-03-11T14:59:22.127Z,99853.66
2019-03-11T15:01:49.787Z,99852.95
2019-03-11T15:04:17.431Z,99849.94
2019-03-11T15:06:45.164Z,99846.35
2019-03-11T15:09:12.903Z,99852.17
2019-03-11T15:11:40.951Z,99842.59
2019-03-11T15:14:08.601Z,99852.23
2019-03-11T15:16:36.235Z,99853.11
2019-03-11T15:19:03.890Z,99854.00
2019-03-11T15:21:31.535Z,99855.75
2019-03-11T15:23:59.183Z,99848.48
2019-03-11T15:26:26.829Z,99848.08
2019-03-11T15:28:54.491Z,99848.20
2019-03-11T15:31:22.144Z,99855.77
2019-03-11T15:33:49.789Z,99854.22
2019-03-11T15:36:17.446Z,99846.12
2019-03-11T15:38:45.090Z,99853.19
2019-03-11T15:41:12.727Z,99870.53
2019-03-11T15:43:40.397Z,99862.28
2019-03-11T15:46:08.113Z,99872.95
2019-03-11T15:48:35.765Z,99875.27
2019-03-11T15:51:03.397Z,99872.87
2019-03-11T15:53:31.051Z,99875.72
2019-03-11T15:55:58.693Z,99869.78
2019-03-11T15:58:26.410Z,99888.20
2019-03-11T16:00:54.051Z,99878.48
2019-03-11T16:03:21.696Z,99891.43
2019-03-11T16:05:49.340Z,99898.72
2019-03-11T16:08:16.987Z,99895.10
2019-03-11T16:10:44.624Z,99902.92
2019-03-11T16:13:12.264Z,99899.08
2019-03-11T16:15:39.954Z,99895.78
2019-03-11T16:18:07.600Z,99902.23
2019-03-11T16:20:35.279Z,99909.80
2019-03-11T16:23:02.968Z,99910.20
2019-03-11T16:25:30.605Z,99914.05
2019-03-11T16:27:58.268Z,99909.27
2019-03-11T16:30:25.915Z,99909.20
2019-03-11T16:33:01.271Z,99916.88
2019-03-11T16:35:23.753Z,99918.58
2019-03-11T16:37:51.400Z,99917.63
2019-03-11T16:40:19.045Z,99920.12
2019-03-11T16:42:46.687Z,99920.88
2019-03-11T16:45:14.332Z,99925.93
2019-03-11T16:47:41.985Z,99927.96
2019-03-11T16:50:09.625Z,99918.10
2019-03-11T16:52:37.267Z,99936.44
2019-03-11T16:55:04.921Z,99934.60
2019-03-11T16:57:32.623Z,99937.19
2019-03-11T17:00:00.313Z,99947.91
2019-03-11T17:02:28.194Z,99942.78
2019-03-11T17:04:55.839Z,99962.61
2019-03-11T17:07:23.458Z,99964.41
2019-03-11T17:09:51.110Z,99968.28
2019-03-11T17:12:18.744Z,99967.94
2019-03-11T17:14:46.385Z,99981.06
2019-03-11T17:17:14.026Z,99975.22
2019-03-11T17:19:41.656Z,99988.66
2019-03-11T17:22:09.296Z,99984.24
2019-03-11T17:24:36.936Z,99988.92
2019-03-11T17:27:04.574Z,99996.34
2019-03-11T17:29:32.223Z,99992.90
2019-03-11T17:31:59.862Z,99997.41
2019-03-11T17:34:27.495Z,100005.42
2019-03-11T17:36:55.139Z,100011.36
2019-03-11T17:39:22.790Z,100005.83
2019-03-11T17:41:50.430Z,100012.05
2019-03-11T17:44:18.246Z,100009.52
2019-03-11T17:46:45.888Z,100007.09
2019-03-11T17:49:14.103Z,100013.23
2019-03-11T17:51:41.792Z,100016.11
2019-03-11T17:54:09.446Z,100026.53
2019-03-11T17:56:37.091Z,100022.16
2019-03-11T17:59:04.755Z,100030.10
2019-03-11T18:01:32.396Z,100031.13
2019-03-11T18:04:00.044Z,100032.58
2019-03-11T18:06:27.700Z,100035.00
2019-03-11T18:08:55.344Z,100036.63
2019-03-11T18:11:23.008Z,100040.16
2019-03-11T18:13:50.647Z,100036.17
2019-03-11T18:16:18.315Z,100036.09
2019-03-11T18:18:45.980Z,100036.97
2019-03-11T18:21:13.726Z,100039.08
2019-03-11T18:23:41.376Z,100045.66
2019-03-11T18:26:09.036Z,100037.28
2019-03-11T18:28:36.766Z,100046.94
2019-03-11T18:31:04.397Z,100051.71
2019-03-11T18:33:32.055Z,100055.33
2019-03-11T18:35:59.702Z,100068.13
2019-03-11T18:38:27.365Z,100081.63
2019-03-11T18:40:55.204Z,100079.97
2019-03-11T18:43:22.952Z,100092.03
2019-03-11T18:45:50.660Z,100071.28
2019-03-11T18:48:18.308Z,100099.08
2019-03-11T18:50:45.961Z,100090.03
2019-03-11T18:53:13.607Z,100092.14
2019-03-11T18:55:41.268Z,100087.25
2019-03-11T18:58:08.988Z,100092.48
2019-03-11T19:00:36.735Z,100091.92
2019-03-11T19:03:04.457Z,100082.19
2019-03-11T19:05:32.191Z,100082.37
2019-03-11T19:07:59.890Z,100096.83
2019-03-11T19:10:27.619Z,100095.85
2019-03-11T19:12:55.286Z,100112.98
2019-03-11T19:15:23.004Z,100107.55
2019-03-11T19:17:50.658Z,100104.27
2019-03-11T19:20:18.354Z,100094.45
2019-03-11T19:22:46.133Z,100097.95
2019-03-11T19:25:13.781Z,100098.91
2019-03-11T19:27:41.439Z,100086.46
2019-03-11T19:30:09.177Z,100106.68
2019-03-11T19:32:36.870Z,100108.00
2019-03-11T19:35:04.544Z,100109.01
2019-03-11T19:37:32.253Z,100104.28
2019-03-11T19:40:00.016Z,100113.01
2019-03-11T19:42:27.703Z,100115.44
2019-03-11T19:44:55.335Z,100115.88
2019-03-11T19:47:22.987Z,100103.39
2019-03-11T19:49:50.909Z,100103.91
2019-03-11T19:52:18.597Z,100101.06
2019-03-11T19:54:46.324Z,100093.88
2019-03-11T19:57:14.112Z,100094.13
2019-03-11T19:59:41.920Z,100093.72
2019-03-11T20:02:09.592Z,100102.37
2019-03-11T20:04:37.381Z,100093.56
2019-03-11T20:07:05.099Z,100094.65
2019-03-11T20:09:34.340Z,100100.11
2019-03-11T20:12:02.393Z,100100.73
2019-03-11T20:14:30.036Z,100102.75
2019-03-11T20:16:57.726Z,100105.72
2019-03-11T20:19:25.478Z,100104.41
2019-03-11T20:21:53.165Z,100097.66
2019-03-11T20:24:20.861Z,100107.12
2019-03-11T20:26:48.503Z,100119.25
2019-03-11T20:29:16.180Z,100119.44
2019-03-11T20:31:43.887Z,100112.69
2019-03-11T20:34:11.590Z,100120.48
2019-03-11T20:36:39.438Z,100132.91
2019-03-11T20:39:07.255Z,100133.92
2019-03-11T20:41:35.088Z,100125.41
2019-03-11T20:44:04.973Z,100136.12
2019-03-11T20:46:32.284Z,100136.25
2019-03-11T20:49:00.033Z,100143.42
2019-03-11T20:51:27.734Z,100142.02
2019-03-11T20:53:55.398Z,100159.09
2019-03-11T20:56:23.098Z,100161.08
2019-03-11T20:58:50.874Z,100174.16
2019-03-11T21:01:18.610Z,100174.45
2019-03-11T21:03:46.318Z,100178.02
2019-03-11T21:06:14.008Z,100170.55
2019-03-11T21:08:41.722Z,100178.94
2019-03-11T21:11:09.438Z,100187.53
2019-03-11T21:13:37.072Z,100192.61
2019-03-11T21:16:04.720Z,100186.55
2019-03-11T21:18:32.363Z,100189.72
2019-03-11T21:21:04.697Z,100198.87
2019-03-11T21:23:29.407Z,100202.90
2019-03-11T21:25:57.196Z,100209.22
2019-03-11T21:28:25.060Z,100207.29
2019-03-11T21:30:52.762Z,100202.02
2019-03-11T21:33:20.446Z,100211.88
2019-03-11T21:35:48.205Z,100206.77
2019-03-11T21:38:16.424Z,100198.18
2019-03-11T21:40:44.166Z,100203.26
2019-03-11T21:43:12.017Z,100214.44
2019-03-11T21:45:39.809Z,100215.35
2019-03-11T21:48:07.491Z,100208.30
2019-03-11T21:50:35.138Z,100220.08
2019-03-11T21:53:02.853Z,100216.20
2019-03-11T21:55:30.645Z,100228.98
2019-03-11T21:57:58.352Z,100233.15
2019-03-11T22:00:34.596Z,100238.06
2019-03-11T22:02:55.347Z,100244.95
2019-03-11T22:05:22.997Z,100251.95
2019-03-11T22:07:50.655Z,100249.89
2019-03-11T22:10:18.323Z,100263.63
2019-03-11T22:12:45.993Z,100273.11
2019-03-11T22:15:13.711Z,100283.66
2019-03-11T22:17:41.355Z,100293.52
2019-03-11T22:20:09.015Z,100297.52
2019-03-11T22:22:36.679Z,100295.92
2019-03-11T22:25:04.300Z,100306.42
2019-03-11T22:27:31.959Z,100311.07
2019-03-11T22:29:59.642Z,100315.47
2019-03-11T22:32:27.451Z,100318.77
2019-03-11T22:34:55.178Z,100331.78
2019-03-11T22:37:22.822Z,100338.01
2019-03-11T22:39:50.539Z,100344.29
2019-03-11T22:42:18.198Z,100355.86
2019-03-11T22:44:45.849Z,100347.02
2019-03-11T22:47:13.503Z,100356.16
2019-03-11T22:49:41.150Z,100371.40
2019-03-11T22:52:08.798Z,100372.77
2019-03-11T22:54:36.436Z,100377.19
2019-03-11T22:57:04.084Z,100374.94
2019-03-11T22:59:31.743Z,100372.36
2019-03-11T23:01:59.404Z,100369.92
2019-03-11T23:04:27.049Z,100377.19
2019-03-11T23:06:54.703Z,100388.28
2019-03-11T23:09:22.341Z,100396.81
2019-03-11T23:11:50.015Z,100384.61
2019-03-11T23:14:17.651Z,100392.59
2019-03-11T23:16:45.311Z,100391.78
2019-03-11T23:19:12.964Z,100393.06
2019-03-11T23:21:40.620Z,100405.23
2019-03-11T23:24:08.253Z,100416.22
2019-03-11T23:26:35.913Z,100425.73
2019-03-11T23:29:03.544Z,100425.43
2019-03-11T23:31:31.199Z,100429.08
2019-03-11T23:33:58.849Z,100424.73
2019-03-11T23:36:26.508Z,100435.62
2019-03-11T23:38:54.155Z,100429.42
2019-03-11T23:41:21.815Z,100432.30
2019-03-11T23:43:49.455Z,100441.20
2019-03-11T23:46:17.207Z,100453.48
2019-03-11T23:48:44.855Z,100449.37
2019-03-11T23:51:12.508Z,100461.83
2019-03-11T23:53:40.154Z,100462.02
2019-03-11T23:56:07.828Z,100464.28
2019-03-11T23:58:35.472Z,100469.59
